sensor_id;sensor_type;location;lat;lon;timestamp;P1;durP1;ratioP1;P2;durP2;ratioP2
73825;SDS011;62155;55.080;73.208;2022-08-07T00:01:58;54.00;;;43.50;;
73825;SDS011;62155;55.080;73.208;2022-08-07T00:04:25;54.00;;;45.00;;
73825;SDS011;62155;55.080;73.208;2022-08-07T00:06:52;52.50;;;42.00;;
73825;SDS011;62155;55.080;73.208;2022-08-07T00:09:26;53.00;;;43.33;;
73825;SDS011;62155;55.080;73.208;2022-08-07T00:11:52;54.00;;;43.00;;
73825;SDS011;62155;55.080;73.208;2022-08-07T00:14:43;55.00;;;44.00;;
73825;SDS011;62155;55.080;73.208;2022-08-07T00:17:12;54.75;;;44.50;;
73825;SDS011;62155;55.080;73.208;2022-08-07T00:19:51;54.00;;;44.00;;
73825;SDS011;62155;55.080;73.208;2022-08-07T00:22:18;53.00;;;43.50;;
73825;SDS011;62155;55.080;73.208;2022-08-07T00:24:55;51.67;;;43.67;;
73825;SDS011;62155;55.080;73.208;2022-08-07T00:27:22;54.75;;;43.00;;
73825;SDS011;62155;55.080;73.208;2022-08-07T00:29:55;54.33;;;44.00;;
73825;SDS011;62155;55.080;73.208;2022-08-07T00:32:35;57.25;;;47.00;;
73825;SDS011;62155;55.080;73.208;2022-08-07T00:35:04;58.00;;;47.00;;
73825;SDS011;62155;55.080;73.208;2022-08-07T00:37:31;60.00;;;48.00;;
73825;SDS011;62155;55.080;73.208;2022-08-07T00:40:01;59.00;;;48.00;;
73825;SDS011;62155;55.080;73.208;2022-08-07T00:42:28;59.00;;;48.00;;
73825;SDS011;62155;55.080;73.208;2022-08-07T00:44:55;59.33;;;48.33;;
73825;SDS011;62155;55.080;73.208;2022-08-07T00:47:22;57.50;;;46.00;;
73825;SDS011;62155;55.080;73.208;2022-08-07T00:49:49;51.00;;;42.00;;
73825;SDS011;62155;55.080;73.208;2022-08-07T00:52:15;49.50;;;42.00;;
73825;SDS011;62155;55.080;73.208;2022-08-07T00:54:42;47.50;;;39.50;;
73825;SDS011;62155;55.080;73.208;2022-08-07T00:57:12;48.00;;;40.00;;
73825;SDS011;62155;55.080;73.208;2022-08-07T00:59:39;62.50;;;49.75;;
73825;SDS011;62155;55.080;73.208;2022-08-07T01:02:13;77.25;;;70.50;;
73825;SDS011;62155;55.080;73.208;2022-08-07T01:13:03;111.25;;;102.75;;
73825;SDS011;62155;55.080;73.208;2022-08-07T01:15:41;105.50;;;96.75;;
73825;SDS011;62155;55.080;73.208;2022-08-07T01:18:14;110.75;;;102.25;;
73825;SDS011;62155;55.080;73.208;2022-08-07T01:23:39;117.75;;;107.75;;
73825;SDS011;62155;55.080;73.208;2022-08-07T01:26:12;123.50;;;114.75;;
73825;SDS011;62155;55.080;73.208;2022-08-07T01:28:52;126.00;;;116.75;;
73825;SDS011;62155;55.080;73.208;2022-08-07T01:31:24;126.25;;;118.00;;
73825;SDS011;62155;55.080;73.208;2022-08-07T01:34:03;124.25;;;116.00;;
73825;SDS011;62155;55.080;73.208;2022-08-07T01:36:39;108.75;;;101.75;;
73825;SDS011;62155;55.080;73.208;2022-08-07T01:39:13;100.33;;;94.00;;
73825;SDS011;62155;55.080;73.208;2022-08-07T01:41:47;101.00;;;93.00;;
73825;SDS011;62155;55.080;73.208;2022-08-07T01:44:16;103.00;;;95.00;;
73825;SDS011;62155;55.080;73.208;2022-08-07T01:46:46;107.50;;;100.25;;
73825;SDS011;62155;55.080;73.208;2022-08-07T01:49:31;118.67;;;108.33;;
73825;SDS011;62155;55.080;73.208;2022-08-07T01:51:59;120.50;;;111.00;;
73825;SDS011;62155;55.080;73.208;2022-08-07T01:54:33;125.00;;;116.00;;
73825;SDS011;62155;55.080;73.208;2022-08-07T01:57:09;122.25;;;112.00;;
73825;SDS011;62155;55.080;73.208;2022-08-07T01:59:43;124.00;;;113.67;;
73825;SDS011;62155;55.080;73.208;2022-08-07T02:02:28;121.50;;;112.50;;
73825;SDS011;62155;55.080;73.208;2022-08-07T02:05:02;126.33;;;117.67;;
73825;SDS011;62155;55.080;73.208;2022-08-07T02:08:18;119.00;;;112.00;;
73825;SDS011;62155;55.080;73.208;2022-08-07T02:10:49;115.00;;;107.00;;
73825;SDS011;62155;55.080;73.208;2022-08-07T02:13:20;116.25;;;109.75;;
73825;SDS011;62155;55.080;73.208;2022-08-07T02:15:52;126.33;;;117.67;;
73825;SDS011;62155;55.080;73.208;2022-08-07T02:18:20;128.25;;;117.50;;
73825;SDS011;62155;55.080;73.208;2022-08-07T02:20:51;116.00;;;106.00;;
73825;SDS011;62155;55.080;73.208;2022-08-07T02:23:20;114.00;;;106.00;;
73825;SDS011;62155;55.080;73.208;2022-08-07T02:25:51;112.00;;;105.00;;
73825;SDS011;62155;55.080;73.208;2022-08-07T02:28:22;104.25;;;96.25;;
73825;SDS011;62155;55.080;73.208;2022-08-07T02:30:54;110.00;;;102.00;;
73825;SDS011;62155;55.080;73.208;2022-08-07T02:33:28;107.50;;;100.25;;
73825;SDS011;62155;55.080;73.208;2022-08-07T02:36:00;106.50;;;97.00;;
73825;SDS011;62155;55.080;73.208;2022-08-07T02:38:32;108.75;;;99.50;;
73825;SDS011;62155;55.080;73.208;2022-08-07T02:41:05;106.33;;;94.67;;
73825;SDS011;62155;55.080;73.208;2022-08-07T02:43:39;96.50;;;89.25;;
73825;SDS011;62155;55.080;73.208;2022-08-07T02:46:25;101.50;;;91.00;;
73825;SDS011;62155;55.080;73.208;2022-08-07T02:48:56;100.00;;;91.75;;
73825;SDS011;62155;55.080;73.208;2022-08-07T02:52:21;97.25;;;90.00;;
73825;SDS011;62155;55.080;73.208;2022-08-07T02:54:50;90.50;;;81.50;;
73825;SDS011;62155;55.080;73.208;2022-08-07T02:57:21;89.00;;;82.50;;
73825;SDS011;62155;55.080;73.208;2022-08-07T02:59:54;87.33;;;81.00;;
73825;SDS011;62155;55.080;73.208;2022-08-07T03:08:29;102.00;;;96.75;;
73825;SDS011;62155;55.080;73.208;2022-08-07T03:11:52;94.25;;;87.00;;
73825;SDS011;62155;55.080;73.208;2022-08-07T03:14:29;90.00;;;85.00;;
73825;SDS011;62155;55.080;73.208;2022-08-07T03:17:33;87.00;;;80.50;;
73825;SDS011;62155;55.080;73.208;2022-08-07T03:20:25;85.75;;;80.25;;
73825;SDS011;62155;55.080;73.208;2022-08-07T03:22:58;91.00;;;83.75;;
73825;SDS011;62155;55.080;73.208;2022-08-07T03:25:26;98.00;;;89.67;;
73825;SDS011;62155;55.080;73.208;2022-08-07T03:28:32;115.25;;;106.25;;
73825;SDS011;62155;55.080;73.208;2022-08-07T03:32:42;113.75;;;106.25;;
73825;SDS011;62155;55.080;73.208;2022-08-07T03:36:33;108.00;;;100.75;;
73825;SDS011;62155;55.080;73.208;2022-08-07T03:39:24;92.33;;;86.67;;
73825;SDS011;62155;55.080;73.208;2022-08-07T03:42:02;85.00;;;80.00;;
73825;SDS011;62155;55.080;73.208;2022-08-07T03:44:31;87.67;;;79.33;;
73825;SDS011;62155;55.080;73.208;2022-08-07T03:46:59;96.00;;;87.25;;
73825;SDS011;62155;55.080;73.208;2022-08-07T03:49:26;83.25;;;75.50;;
73825;SDS011;62155;55.080;73.208;2022-08-07T03:51:56;83.25;;;74.00;;
73825;SDS011;62155;55.080;73.208;2022-08-07T03:54:25;77.00;;;70.33;;
73825;SDS011;62155;55.080;73.208;2022-08-07T03:56:57;78.75;;;72.75;;
73825;SDS011;62155;55.080;73.208;2022-08-07T03:59:40;79.00;;;75.00;;
73825;SDS011;62155;55.080;73.208;2022-08-07T04:02:08;85.00;;;80.25;;
73825;SDS011;62155;55.080;73.208;2022-08-07T04:04:41;82.00;;;77.25;;
73825;SDS011;62155;55.080;73.208;2022-08-07T04:07:20;104.25;;;98.50;;
73825;SDS011;62155;55.080;73.208;2022-08-07T04:09:57;103.67;;;97.00;;
73825;SDS011;62155;55.080;73.208;2022-08-07T04:12:25;113.00;;;105.25;;
73825;SDS011;62155;55.080;73.208;2022-08-07T04:14:53;113.50;;;105.75;;
73825;SDS011;62155;55.080;73.208;2022-08-07T04:17:28;89.75;;;85.75;;
73825;SDS011;62155;55.080;73.208;2022-08-07T04:20:02;99.00;;;93.33;;
73825;SDS011;62155;55.080;73.208;2022-08-07T04:22:31;112.75;;;104.75;;
73825;SDS011;62155;55.080;73.208;2022-08-07T04:25:02;124.33;;;116.67;;
73825;SDS011;62155;55.080;73.208;2022-08-07T04:27:32;126.00;;;118.00;;
73825;SDS011;62155;55.080;73.208;2022-08-07T04:30:00;116.00;;;109.00;;
73825;SDS011;62155;55.080;73.208;2022-08-07T04:32:44;98.50;;;92.50;;
73825;SDS011;62155;55.080;73.208;2022-08-07T04:35:24;90.00;;;83.33;;
73825;SDS011;62155;55.080;73.208;2022-08-07T04:37:55;92.50;;;85.75;;
73825;SDS011;62155;55.080;73.208;2022-08-07T04:40:25;99.00;;;93.00;;
73825;SDS011;62155;55.080;73.208;2022-08-07T04:42:56;110.25;;;103.50;;
73825;SDS011;62155;55.080;73.208;2022-08-07T04:45:24;114.67;;;106.67;;
73825;SDS011;62155;55.080;73.208;2022-08-07T04:48:00;127.00;;;117.00;;
73825;SDS011;62155;55.080;73.208;2022-08-07T04:51:04;108.00;;;99.67;;
73825;SDS011;62155;55.080;73.208;2022-08-07T04:53:38;85.50;;;79.50;;
73825;SDS011;62155;55.080;73.208;2022-08-07T04:56:25;93.25;;;86.75;;
73825;SDS011;62155;55.080;73.208;2022-08-07T04:59:05;106.75;;;99.50;;
73825;SDS011;62155;55.080;73.208;2022-08-07T05:04:21;97.25;;;90.00;;
73825;SDS011;62155;55.080;73.208;2022-08-07T05:06:57;131.25;;;121.00;;
73825;SDS011;62155;55.080;73.208;2022-08-07T05:12:08;129.25;;;121.75;;
73825;SDS011;62155;55.080;73.208;2022-08-07T05:14:42;145.00;;;140.00;;
73825;SDS011;62155;55.080;73.208;2022-08-07T05:17:12;115.00;;;107.25;;
73825;SDS011;62155;55.080;73.208;2022-08-07T05:19:43;110.33;;;104.33;;
73825;SDS011;62155;55.080;73.208;2022-08-07T05:22:17;119.00;;;112.50;;
73825;SDS011;62155;55.080;73.208;2022-08-07T05:24:47;156.33;;;150.00;;
73825;SDS011;62155;55.080;73.208;2022-08-07T05:27:22;129.50;;;124.25;;
73825;SDS011;62155;55.080;73.208;2022-08-07T05:29:50;106.67;;;101.33;;
73825;SDS011;62155;55.080;73.208;2022-08-07T05:32:18;92.00;;;84.25;;
73825;SDS011;62155;55.080;73.208;2022-08-07T05:34:52;82.00;;;76.00;;
73825;SDS011;62155;55.080;73.208;2022-08-07T05:37:20;91.50;;;84.00;;
73825;SDS011;62155;55.080;73.208;2022-08-07T05:40:01;123.67;;;113.67;;
73825;SDS011;62155;55.080;73.208;2022-08-07T05:42:29;105.50;;;99.25;;
73825;SDS011;62155;55.080;73.208;2022-08-07T05:44:57;115.67;;;107.00;;
73825;SDS011;62155;55.080;73.208;2022-08-07T05:47:25;100.00;;;91.25;;
73825;SDS011;62155;55.080;73.208;2022-08-07T05:49:53;130.33;;;119.00;;
73825;SDS011;62155;55.080;73.208;2022-08-07T05:52:23;254.50;;;230.75;;
73825;SDS011;62155;55.080;73.208;2022-08-07T05:54:58;177.00;;;161.67;;
73825;SDS011;62155;55.080;73.208;2022-08-07T05:57:26;122.75;;;112.75;;
73825;SDS011;62155;55.080;73.208;2022-08-07T05:59:56;115.00;;;106.33;;
73825;SDS011;62155;55.080;73.208;2022-08-07T06:02:27;115.75;;;107.25;;
73825;SDS011;62155;55.080;73.208;2022-08-07T06:08:27;93.75;;;87.50;;
73825;SDS011;62155;55.080;73.208;2022-08-07T06:10:55;87.67;;;82.33;;
73825;SDS011;62155;55.080;73.208;2022-08-07T06:13:24;95.00;;;87.00;;
73825;SDS011;62155;55.080;73.208;2022-08-07T06:15:57;92.67;;;85.67;;
73825;SDS011;62155;55.080;73.208;2022-08-07T06:18:27;91.75;;;85.75;;
73825;SDS011;62155;55.080;73.208;2022-08-07T06:20:56;92.00;;;85.50;;
73825;SDS011;62155;55.080;73.208;2022-08-07T06:23:34;85.00;;;80.00;;
73825;SDS011;62155;55.080;73.208;2022-08-07T06:26:12;85.75;;;79.75;;
73825;SDS011;62155;55.080;73.208;2022-08-07T06:28:54;92.80;;;87.60;;
73825;SDS011;62155;55.080;73.208;2022-08-07T06:31:28;96.00;;;90.25;;
73825;SDS011;62155;55.080;73.208;2022-08-07T06:33:56;103.00;;;95.67;;
73825;SDS011;62155;55.080;73.208;2022-08-07T06:36:23;104.50;;;98.00;;
73825;SDS011;62155;55.080;73.208;2022-08-07T06:38:56;93.75;;;86.25;;
73825;SDS011;62155;55.080;73.208;2022-08-07T06:41:29;91.25;;;81.75;;
73825;SDS011;62155;55.080;73.208;2022-08-07T06:43:57;89.80;;;80.40;;
73825;SDS011;62155;55.080;73.208;2022-08-07T06:46:28;94.50;;;85.25;;
73825;SDS011;62155;55.080;73.208;2022-08-07T06:49:01;92.50;;;86.75;;
73825;SDS011;62155;55.080;73.208;2022-08-07T07:01:21;93.25;;;87.00;;
73825;SDS011;62155;55.080;73.208;2022-08-07T07:03:57;87.80;;;83.00;;
73825;SDS011;62155;55.080;73.208;2022-08-07T07:06:24;88.50;;;84.00;;
73825;SDS011;62155;55.080;73.208;2022-08-07T07:08:55;99.33;;;92.33;;
73825;SDS011;62155;55.080;73.208;2022-08-07T07:11:32;107.00;;;99.75;;
73825;SDS011;62155;55.080;73.208;2022-08-07T07:14:02;101.00;;;92.50;;
73825;SDS011;62155;55.080;73.208;2022-08-07T07:16:35;103.25;;;91.50;;
73825;SDS011;62155;55.080;73.208;2022-08-07T07:22:17;96.50;;;87.25;;
73825;SDS011;62155;55.080;73.208;2022-08-07T07:27:39;90.75;;;83.25;;
73825;SDS011;62155;55.080;73.208;2022-08-07T07:30:07;90.00;;;83.75;;
73825;SDS011;62155;55.080;73.208;2022-08-07T07:32:54;93.00;;;86.25;;
73825;SDS011;62155;55.080;73.208;2022-08-07T07:35:24;110.00;;;101.00;;
73825;SDS011;62155;55.080;73.208;2022-08-07T07:37:52;135.25;;;124.50;;
73825;SDS011;62155;55.080;73.208;2022-08-07T07:40:21;112.00;;;103.67;;
73825;SDS011;62155;55.080;73.208;2022-08-07T07:42:49;114.50;;;103.75;;
73825;SDS011;62155;55.080;73.208;2022-08-07T07:45:19;100.00;;;91.00;;
73825;SDS011;62155;55.080;73.208;2022-08-07T07:47:57;87.00;;;83.00;;
73825;SDS011;62155;55.080;73.208;2022-08-07T07:50:55;103.00;;;97.75;;
73825;SDS011;62155;55.080;73.208;2022-08-07T07:53:25;99.75;;;95.00;;
73825;SDS011;62155;55.080;73.208;2022-08-07T07:55:57;100.67;;;93.00;;
73825;SDS011;62155;55.080;73.208;2022-08-07T07:58:30;129.00;;;119.00;;
73825;SDS011;62155;55.080;73.208;2022-08-07T08:01:00;128.75;;;118.50;;
73825;SDS011;62155;55.080;73.208;2022-08-07T08:03:36;107.50;;;97.00;;
73825;SDS011;62155;55.080;73.208;2022-08-07T08:06:05;97.25;;;91.00;;
73825;SDS011;62155;55.080;73.208;2022-08-07T08:08:34;97.00;;;90.25;;
73825;SDS011;62155;55.080;73.208;2022-08-07T08:11:13;96.25;;;89.25;;
73825;SDS011;62155;55.080;73.208;2022-08-07T08:13:42;105.25;;;97.00;;
73825;SDS011;62155;55.080;73.208;2022-08-07T08:16:17;92.50;;;85.00;;
73825;SDS011;62155;55.080;73.208;2022-08-07T08:18:53;93.50;;;85.50;;
73825;SDS011;62155;55.080;73.208;2022-08-07T08:21:20;139.00;;;129.00;;
73825;SDS011;62155;55.080;73.208;2022-08-07T08:24:06;153.33;;;139.33;;
73825;SDS011;62155;55.080;73.208;2022-08-07T08:26:57;121.25;;;113.50;;
73825;SDS011;62155;55.080;73.208;2022-08-07T08:30:07;96.67;;;91.00;;
73825;SDS011;62155;55.080;73.208;2022-08-07T08:32:27;89.00;;;81.00;;
73825;SDS011;62155;55.080;73.208;2022-08-07T08:35:07;87.00;;;82.00;;
73825;SDS011;62155;55.080;73.208;2022-08-07T08:37:36;92.25;;;87.25;;
73825;SDS011;62155;55.080;73.208;2022-08-07T08:40:08;90.67;;;84.67;;
73825;SDS011;62155;55.080;73.208;2022-08-07T08:42:38;83.25;;;77.75;;
73825;SDS011;62155;55.080;73.208;2022-08-07T08:45:55;85.25;;;77.25;;
73825;SDS011;62155;55.080;73.208;2022-08-07T08:50:38;77.00;;;69.00;;
73825;SDS011;62155;55.080;73.208;2022-08-07T08:53:21;78.75;;;72.50;;
73825;SDS011;62155;55.080;73.208;2022-08-07T08:58:41;77.50;;;72.50;;
73825;SDS011;62155;55.080;73.208;2022-08-07T09:01:14;79.00;;;72.25;;
73825;SDS011;62155;55.080;73.208;2022-08-07T09:04:09;75.25;;;65.50;;
73825;SDS011;62155;55.080;73.208;2022-08-07T09:09:24;72.67;;;61.00;;
73825;SDS011;62155;55.080;73.208;2022-08-07T09:14:47;69.00;;;58.00;;
73825;SDS011;62155;55.080;73.208;2022-08-07T09:22:45;69.25;;;55.25;;
73825;SDS011;62155;55.080;73.208;2022-08-07T09:28:06;70.00;;;57.00;;
73825;SDS011;62155;55.080;73.208;2022-08-07T09:30:54;68.00;;;54.00;;
73825;SDS011;62155;55.080;73.208;2022-08-07T09:36:02;65.67;;;51.00;;
73825;SDS011;62155;55.080;73.208;2022-08-07T09:39:08;63.00;;;49.50;;
73825;SDS011;62155;55.080;73.208;2022-08-07T09:42:39;61.50;;;49.75;;
73825;SDS011;62155;55.080;73.208;2022-08-07T09:44:59;61.00;;;47.00;;
73825;SDS011;62155;55.080;73.208;2022-08-07T09:47:50;59.00;;;46.00;;
73825;SDS011;62155;55.080;73.208;2022-08-07T09:53:35;56.00;;;45.00;;
73825;SDS011;62155;55.080;73.208;2022-08-07T09:56:28;57.25;;;46.50;;
73825;SDS011;62155;55.080;73.208;2022-08-07T10:06:45;57.25;;;46.25;;
73825;SDS011;62155;55.080;73.208;2022-08-07T10:17:25;62.00;;;50.00;;
73825;SDS011;62155;55.080;73.208;2022-08-07T10:20:09;72.67;;;61.67;;
73825;SDS011;62155;55.080;73.208;2022-08-07T10:42:07;54.25;;;43.50;;
73825;SDS011;62155;55.080;73.208;2022-08-07T10:47:23;48.25;;;40.00;;
73825;SDS011;62155;55.080;73.208;2022-08-07T11:01:05;41.00;;;34.00;;
73825;SDS011;62155;55.080;73.208;2022-08-07T11:03:36;42.25;;;35.50;;
73825;SDS011;62155;55.080;73.208;2022-08-07T11:06:07;45.67;;;38.67;;
73825;SDS011;62155;55.080;73.208;2022-08-07T11:11:17;49.00;;;40.00;;
73825;SDS011;62155;55.080;73.208;2022-08-07T11:13:57;46.00;;;37.00;;
73825;SDS011;62155;55.080;73.208;2022-08-07T11:19:13;38.33;;;34.00;;
73825;SDS011;62155;55.080;73.208;2022-08-07T11:24:32;39.00;;;32.00;;
73825;SDS011;62155;55.080;73.208;2022-08-07T11:30:04;40.00;;;34.00;;
73825;SDS011;62155;55.080;73.208;2022-08-07T11:32:46;36.00;;;31.50;;
73825;SDS011;62155;55.080;73.208;2022-08-07T11:35:20;34.50;;;30.00;;
73825;SDS011;62155;55.080;73.208;2022-08-07T11:40:37;153.33;;;143.00;;
73825;SDS011;62155;55.080;73.208;2022-08-07T11:43:10;104.00;;;96.00;;
73825;SDS011;62155;55.080;73.208;2022-08-07T11:45:53;70.00;;;58.00;;
73825;SDS011;62155;55.080;73.208;2022-08-07T11:56:46;32.50;;;30.00;;
73825;SDS011;62155;55.080;73.208;2022-08-07T12:05:01;44.50;;;37.50;;
73825;SDS011;62155;55.080;73.208;2022-08-07T12:07:47;57.00;;;45.25;;
73825;SDS011;62155;55.080;73.208;2022-08-07T12:16:01;27.75;;;27.50;;
73825;SDS011;62155;55.080;73.208;2022-08-07T12:18:40;26.00;;;24.00;;
73825;SDS011;62155;55.080;73.208;2022-08-07T12:21:13;24.25;;;22.50;;
73825;SDS011;62155;55.080;73.208;2022-08-07T12:23:59;25.50;;;23.00;;
73825;SDS011;62155;55.080;73.208;2022-08-07T12:26:41;32.50;;;29.00;;
73825;SDS011;62155;55.080;73.208;2022-08-07T12:29:47;32.00;;;29.00;;
73825;SDS011;62155;55.080;73.208;2022-08-07T12:34:53;35.00;;;31.00;;
73825;SDS011;62155;55.080;73.208;2022-08-07T12:40:21;46.25;;;37.75;;
73825;SDS011;62155;55.080;73.208;2022-08-07T12:42:58;48.00;;;38.75;;
73825;SDS011;62155;55.080;73.208;2022-08-07T12:45:30;45.00;;;35.00;;
73825;SDS011;62155;55.080;73.208;2022-08-07T12:48:03;41.00;;;34.25;;
73825;SDS011;62155;55.080;73.208;2022-08-07T12:50:41;50.50;;;41.25;;
73825;SDS011;62155;55.080;73.208;2022-08-07T12:58:14;42.25;;;35.00;;
73825;SDS011;62155;55.080;73.208;2022-08-07T13:58:23;72.50;;;64.00;;
73825;SDS011;62155;55.080;73.208;2022-08-07T14:10:37;82.00;;;76.67;;
73825;SDS011;62155;55.080;73.208;2022-08-07T14:13:09;77.00;;;70.00;;
73825;SDS011;62155;55.080;73.208;2022-08-07T14:16:05;62.00;;;48.67;;
73825;SDS011;62155;55.080;73.208;2022-08-07T14:18:39;57.25;;;46.00;;
73825;SDS011;62155;55.080;73.208;2022-08-07T14:21:15;66.50;;;53.25;;
73825;SDS011;62155;55.080;73.208;2022-08-07T14:24:04;72.00;;;64.00;;
73825;SDS011;62155;55.080;73.208;2022-08-07T14:26:36;81.50;;;77.00;;
73825;SDS011;62155;55.080;73.208;2022-08-07T14:29:07;77.00;;;69.33;;
73825;SDS011;62155;55.080;73.208;2022-08-07T14:32:04;58.00;;;46.00;;
73825;SDS011;62155;55.080;73.208;2022-08-07T14:34:36;39.50;;;33.50;;
73825;SDS011;62155;55.080;73.208;2022-08-07T14:37:06;31.25;;;29.00;;
73825;SDS011;62155;55.080;73.208;2022-08-07T14:39:37;29.00;;;28.00;;
73825;SDS011;62155;55.080;73.208;2022-08-07T14:42:06;27.50;;;25.75;;
73825;SDS011;62155;55.080;73.208;2022-08-07T14:44:34;34.00;;;31.33;;
73825;SDS011;62155;55.080;73.208;2022-08-07T14:47:02;46.75;;;39.25;;
73825;SDS011;62155;55.080;73.208;2022-08-07T14:49:32;51.67;;;42.67;;
73825;SDS011;62155;55.080;73.208;2022-08-07T14:52:00;45.00;;;38.00;;
73825;SDS011;62155;55.080;73.208;2022-08-07T14:54:30;35.50;;;31.50;;
73825;SDS011;62155;55.080;73.208;2022-08-07T14:57:05;46.00;;;37.00;;
73825;SDS011;62155;55.080;73.208;2022-08-07T14:59:38;40.00;;;32.00;;
73825;SDS011;62155;55.080;73.208;2022-08-07T15:02:16;61.75;;;49.50;;
73825;SDS011;62155;55.080;73.208;2022-08-07T15:04:44;50.00;;;41.33;;
73825;SDS011;62155;55.080;73.208;2022-08-07T15:07:23;89.00;;;82.75;;
73825;SDS011;62155;55.080;73.208;2022-08-07T15:09:50;81.33;;;74.33;;
73825;SDS011;62155;55.080;73.208;2022-08-07T15:12:25;60.00;;;47.50;;
73825;SDS011;62155;55.080;73.208;2022-08-07T15:14:59;53.33;;;43.67;;
73825;SDS011;62155;55.080;73.208;2022-08-07T15:17:29;47.50;;;38.25;;
73825;SDS011;62155;55.080;73.208;2022-08-07T15:20:03;39.67;;;33.67;;
73825;SDS011;62155;55.080;73.208;2022-08-07T15:22:31;40.00;;;33.00;;
73825;SDS011;62155;55.080;73.208;2022-08-07T15:25:11;39.00;;;33.00;;
73825;SDS011;62155;55.080;73.208;2022-08-07T15:27:40;37.50;;;32.00;;
73825;SDS011;62155;55.080;73.208;2022-08-07T15:30:13;31.00;;;29.00;;
73825;SDS011;62155;55.080;73.208;2022-08-07T15:32:44;29.00;;;28.00;;
73825;SDS011;62155;55.080;73.208;2022-08-07T15:35:24;29.00;;;28.75;;
73825;SDS011;62155;55.080;73.208;2022-08-07T15:37:53;28.00;;;25.00;;
73825;SDS011;62155;55.080;73.208;2022-08-07T15:40:21;29.00;;;28.00;;
73825;SDS011;62155;55.080;73.208;2022-08-07T15:43:14;30.00;;;29.00;;
73825;SDS011;62155;55.080;73.208;2022-08-07T15:45:45;33.50;;;30.75;;
73825;SDS011;62155;55.080;73.208;2022-08-07T15:48:19;34.25;;;31.00;;
73825;SDS011;62155;55.080;73.208;2022-08-07T15:50:47;33.67;;;31.33;;
73825;SDS011;62155;55.080;73.208;2022-08-07T15:53:32;33.50;;;29.25;;
73825;SDS011;62155;55.080;73.208;2022-08-07T15:56:10;34.25;;;31.00;;
73825;SDS011;62155;55.080;73.208;2022-08-07T15:58:52;33.00;;;29.00;;
73825;SDS011;62155;55.080;73.208;2022-08-07T16:01:29;39.00;;;32.50;;
73825;SDS011;62155;55.080;73.208;2022-08-07T16:04:01;32.00;;;31.00;;
73825;SDS011;62155;55.080;73.208;2022-08-07T16:06:51;32.00;;;30.50;;
73825;SDS011;62155;55.080;73.208;2022-08-07T16:17:16;36.25;;;32.50;;
73825;SDS011;62155;55.080;73.208;2022-08-07T16:20:03;34.33;;;32.00;;
73825;SDS011;62155;55.080;73.208;2022-08-07T16:25:01;43.00;;;35.00;;
73825;SDS011;62155;55.080;73.208;2022-08-07T16:27:37;39.25;;;34.00;;
73825;SDS011;62155;55.080;73.208;2022-08-07T16:30:16;49.00;;;40.33;;
73825;SDS011;62155;55.080;73.208;2022-08-07T16:33:05;64.00;;;51.00;;
73825;SDS011;62155;55.080;73.208;2022-08-07T16:35:42;55.33;;;45.33;;
73825;SDS011;62155;55.080;73.208;2022-08-07T16:38:37;51.75;;;43.00;;
73825;SDS011;62155;55.080;73.208;2022-08-07T16:41:19;48.00;;;40.00;;
73825;SDS011;62155;55.080;73.208;2022-08-07T16:46:44;37.50;;;32.50;;
73825;SDS011;62155;55.080;73.208;2022-08-07T16:57:06;37.50;;;31.75;;
73825;SDS011;62155;55.080;73.208;2022-08-07T16:59:53;41.00;;;35.00;;
73825;SDS011;62155;55.080;73.208;2022-08-07T17:02:49;43.00;;;37.00;;
73825;SDS011;62155;55.080;73.208;2022-08-07T17:07:58;40.00;;;34.00;;
73825;SDS011;62155;55.080;73.208;2022-08-07T17:13:58;36.67;;;31.67;;
73825;SDS011;62155;55.080;73.208;2022-08-07T17:16:43;39.00;;;32.50;;
73825;SDS011;62155;55.080;73.208;2022-08-07T17:22:25;35.00;;;32.00;;
73825;SDS011;62155;55.080;73.208;2022-08-07T17:27:32;25.25;;;22.75;;
73825;SDS011;62155;55.080;73.208;2022-08-07T17:30:09;29.00;;;26.00;;
73825;SDS011;62155;55.080;73.208;2022-08-07T17:32:42;29.25;;;26.00;;
73825;SDS011;62155;55.080;73.208;2022-08-07T17:35:24;27.67;;;26.67;;
73825;SDS011;62155;55.080;73.208;2022-08-07T17:38:02;27.75;;;25.50;;
73825;SDS011;62155;55.080;73.208;2022-08-07T17:40:34;27.25;;;25.00;;
73825;SDS011;62155;55.080;73.208;2022-08-07T17:43:20;29.00;;;26.00;;
73825;SDS011;62155;55.080;73.208;2022-08-07T17:46:16;26.75;;;25.00;;
73825;SDS011;62155;55.080;73.208;2022-08-07T17:51:55;27.00;;;26.00;;
73825;SDS011;62155;55.080;73.208;2022-08-07T17:54:36;30.00;;;27.00;;
73825;SDS011;62155;55.080;73.208;2022-08-07T17:59:53;28.33;;;25.00;;
73825;SDS011;62155;55.080;73.208;2022-08-07T18:05:10;27.00;;;27.00;;
73825;SDS011;62155;55.080;73.208;2022-08-07T18:07:40;26.00;;;25.50;;
73825;SDS011;62155;55.080;73.208;2022-08-07T18:10:21;25.00;;;23.00;;
73825;SDS011;62155;55.080;73.208;2022-08-07T18:15:34;20.33;;;20.00;;
73825;SDS011;62155;55.080;73.208;2022-08-07T18:18:11;18.50;;;18.00;;
73825;SDS011;62155;55.080;73.208;2022-08-07T18:20:39;20.33;;;19.00;;
73825;SDS011;62155;55.080;73.208;2022-08-07T18:23:16;22.00;;;21.75;;
73825;SDS011;62155;55.080;73.208;2022-08-07T18:25:45;21.67;;;21.00;;
73825;SDS011;62155;55.080;73.208;2022-08-07T18:28:33;22.00;;;21.00;;
73825;SDS011;62155;55.080;73.208;2022-08-07T18:31:07;22.00;;;20.00;;
73825;SDS011;62155;55.080;73.208;2022-08-07T18:47:28;26.00;;;25.00;;
73825;SDS011;62155;55.080;73.208;2022-08-07T18:52:55;23.00;;;23.00;;
73825;SDS011;62155;55.080;73.208;2022-08-07T19:03:16;26.25;;;25.00;;
73825;SDS011;62155;55.080;73.208;2022-08-07T19:05:58;20.00;;;20.00;;
73825;SDS011;62155;55.080;73.208;2022-08-07T19:08:32;19.00;;;19.00;;
73825;SDS011;62155;55.080;73.208;2022-08-07T19:11:13;19.00;;;17.00;;
73825;SDS011;62155;55.080;73.208;2022-08-07T19:13:59;21.00;;;20.00;;
73825;SDS011;62155;55.080;73.208;2022-08-07T19:16:29;22.00;;;21.00;;
73825;SDS011;62155;55.080;73.208;2022-08-07T19:19:12;21.00;;;20.00;;
73825;SDS011;62155;55.080;73.208;2022-08-07T19:22:08;21.00;;;20.00;;
73825;SDS011;62155;55.080;73.208;2022-08-07T19:24:42;21.00;;;19.00;;
73825;SDS011;62155;55.080;73.208;2022-08-07T19:27:15;20.00;;;19.00;;
73825;SDS011;62155;55.080;73.208;2022-08-07T19:29:55;21.00;;;19.00;;
73825;SDS011;62155;55.080;73.208;2022-08-07T19:32:25;22.25;;;19.75;;
73825;SDS011;62155;55.080;73.208;2022-08-07T19:34:56;22.00;;;21.00;;
73825;SDS011;62155;55.080;73.208;2022-08-07T19:37:39;21.00;;;20.00;;
73825;SDS011;62155;55.080;73.208;2022-08-07T19:40:09;19.33;;;19.33;;
73825;SDS011;62155;55.080;73.208;2022-08-07T19:42:42;19.50;;;18.50;;
73825;SDS011;62155;55.080;73.208;2022-08-07T19:45:26;18.00;;;18.00;;
73825;SDS011;62155;55.080;73.208;2022-08-07T19:48:36;21.25;;;19.50;;
73825;SDS011;62155;55.080;73.208;2022-08-07T19:51:04;21.00;;;19.00;;